createdAt,value
2022-10-02T00:02:30.985Z,7.78
2022-10-02T00:05:06.580Z,7.20
2022-10-02T00:07:54.047Z,7.53
2022-10-02T00:10:34.454Z,7.72
2022-10-02T00:13:05.852Z,7.70
2022-10-02T00:15:36.656Z,7.78
2022-10-02T00:18:11.721Z,7.10
2022-10-02T00:21:00.540Z,8.05
2022-10-02T00:23:31.818Z,7.22
2022-10-02T00:26:05.412Z,7.57
2022-10-02T00:28:41.650Z,7.35
2022-10-02T00:31:31.140Z,7.22
2022-10-02T00:34:30.772Z,7.40
2022-10-02T00:37:02.749Z,6.90
2022-10-02T00:39:38.660Z,6.55
2022-10-02T00:42:23.458Z,6.55
2022-10-02T00:44:55.860Z,7.22
2022-10-02T00:47:51.668Z,6.80
2022-10-02T00:50:37.235Z,6.63
2022-10-02T00:53:15.949Z,6.45
2022-10-02T00:56:05.728Z,6.40
2022-10-02T00:58:56.030Z,5.93
2022-10-02T01:01:29.730Z,5.18
2022-10-02T01:03:57.648Z,5.38
2022-10-02T01:06:27.823Z,5.55
2022-10-02T01:08:55.512Z,5.97
2022-10-02T01:11:26.199Z,5.57
2022-10-02T01:13:53.266Z,4.70
2022-10-02T01:16:20.211Z,5.30
2022-10-02T01:18:48.090Z,4.55
2022-10-02T01:21:42.115Z,4.40
2022-10-02T01:24:36.952Z,4.72
2022-10-02T01:27:03.834Z,4.55
2022-10-02T01:29:30.595Z,4.68
2022-10-02T01:31:57.421Z,4.80
2022-10-02T01:34:24.253Z,5.00
2022-10-02T01:36:51.038Z,5.28
2022-10-02T01:39:18.318Z,4.95
2022-10-02T01:41:45.264Z,4.80
2022-10-02T01:44:13.851Z,5.25
2022-10-02T01:47:21.112Z,5.57
2022-10-02T01:50:12.317Z,4.75
2022-10-02T01:52:41.794Z,5.15
2022-10-02T01:55:19.752Z,5.05
2022-10-02T01:58:14.004Z,4.90
2022-10-02T02:00:55.719Z,5.10
2022-10-02T02:03:32.648Z,4.40
2022-10-02T02:06:07.813Z,5.30
2022-10-02T02:08:56.450Z,4.68
2022-10-02T02:11:25.366Z,5.20
2022-10-02T02:14:13.812Z,5.18
2022-10-02T02:16:44.694Z,4.93
2022-10-02T02:19:35.141Z,4.80
2022-10-02T02:22:07.872Z,4.50
2022-10-02T02:24:39.685Z,5.30
2022-10-02T02:27:10.240Z,4.93
2022-10-02T02:29:39.292Z,5.07
2022-10-02T02:32:09.902Z,4.75
2022-10-02T02:34:49.773Z,4.80
2022-10-02T02:37:20.444Z,5.63
2022-10-02T02:39:52.655Z,5.40
2022-10-02T02:42:26.277Z,5.03
2022-10-02T02:45:19.722Z,5.28
2022-10-02T02:47:51.328Z,5.47
2022-10-02T02:50:31.767Z,4.97
2022-10-02T02:53:13.587Z,4.28
2022-10-02T02:55:48.603Z,5.10
2022-10-02T02:58:20.703Z,5.10
2022-10-02T03:00:47.549Z,5.63
2022-10-02T03:03:14.895Z,5.88
2022-10-02T03:05:46.823Z,4.70
2022-10-02T03:08:26.916Z,4.80
2022-10-02T03:11:05.874Z,4.55
2022-10-02T03:13:54.129Z,4.60
2022-10-02T03:16:39.310Z,4.55
2022-10-02T03:19:14.925Z,4.70
2022-10-02T03:21:53.609Z,4.90
2022-10-02T03:24:48.746Z,4.88
2022-10-02T03:27:36.710Z,4.18
2022-10-02T03:30:08.572Z,5.18
2022-10-02T03:32:38.162Z,4.18
2022-10-02T03:35:09.204Z,4.70
2022-10-02T03:37:36.169Z,5.03
2022-10-02T03:40:05.422Z,4.20
2022-10-02T03:42:35.284Z,5.03
2022-10-02T03:45:02.186Z,4.90
2022-10-02T03:47:29.106Z,4.80
2022-10-02T03:49:55.812Z,4.97
2022-10-02T03:52:23.610Z,4.80
2022-10-02T03:54:56.134Z,5.03
2022-10-02T03:57:25.108Z,5.30
2022-10-02T04:00:06.240Z,6.25
2022-10-02T04:02:48.872Z,6.10
2022-10-02T04:05:34.027Z,5.75
2022-10-02T04:08:09.057Z,6.20
2022-10-02T04:10:50.670Z,5.97
2022-10-02T04:13:21.368Z,5.85
2022-10-02T04:16:03.582Z,5.70
2022-10-02T04:18:43.060Z,5.53
2022-10-02T04:21:34.322Z,5.70
2022-10-02T04:24:21.628Z,5.82
2022-10-02T04:27:02.072Z,5.90
2022-10-02T04:29:35.721Z,5.32
2022-10-02T04:32:16.027Z,5.60
2022-10-02T04:34:43.245Z,5.68
2022-10-02T04:37:31.962Z,5.95
2022-10-02T04:40:29.062Z,5.78
2022-10-02T04:43:40.596Z,5.70
2022-10-02T04:46:37.864Z,6.47
2022-10-02T04:49:27.053Z,6.10
2022-10-02T04:52:18.821Z,6.22
2022-10-02T04:55:01.850Z,7.70
2022-10-02T04:57:47.257Z,6.55
2022-10-02T05:00:18.130Z,7.50
2022-10-02T05:03:16.751Z,6.47
2022-10-02T05:06:04.268Z,6.57
2022-10-02T05:09:06.615Z,6.95
2022-10-02T05:12:21.734Z,7.20
2022-10-02T05:15:17.215Z,7.78
2022-10-02T05:18:04.188Z,8.52
2022-10-02T05:20:33.752Z,8.63
2022-10-02T05:23:03.511Z,9.18
2022-10-02T05:26:12.046Z,8.98
2022-10-02T05:28:49.789Z,10.77
2022-10-02T05:31:51.950Z,11.43
2022-10-02T05:34:45.105Z,13.57
2022-10-02T05:37:45.180Z,13.40
2022-10-02T05:40:25.198Z,14.73
2022-10-02T05:42:54.989Z,17.02
2022-10-02T05:45:31.088Z,18.20
2022-10-02T05:48:32.984Z,16.30
2022-10-02T05:51:07.993Z,16.23
2022-10-02T05:53:43.711Z,17.40
2022-10-02T05:59:03.296Z,17.55
2022-10-02T06:01:38.441Z,17.23
2022-10-02T06:04:35.790Z,16.65
2022-10-02T06:07:13.497Z,16.15
2022-10-02T06:09:43.216Z,16.45
2022-10-02T06:12:26.732Z,15.98
2022-10-02T06:15:17.261Z,14.90
2022-10-02T06:17:49.799Z,15.05
2022-10-02T06:20:32.612Z,16.10
2022-10-02T06:23:06.110Z,14.90
2022-10-02T06:25:48.725Z,14.30
2022-10-02T06:28:27.777Z,14.45
2022-10-02T06:31:04.843Z,15.30
2022-10-02T06:33:33.446Z,12.93
2022-10-02T06:36:08.390Z,12.82
2022-10-02T06:39:05.722Z,12.38
2022-10-02T06:42:11.318Z,11.55
2022-10-02T06:44:56.994Z,11.55
2022-10-02T06:47:45.037Z,11.57
2022-10-02T06:50:19.345Z,11.60
2022-10-02T06:53:04.127Z,10.48
2022-10-02T06:55:44.460Z,10.82
2022-10-02T06:58:23.244Z,11.25
2022-10-02T07:01:02.760Z,9.93
2022-10-02T07:03:52.774Z,10.70
2022-10-02T07:06:28.504Z,11.32
2022-10-02T07:12:18.606Z,10.88
2022-10-02T07:14:54.244Z,10.88
2022-10-02T07:17:36.106Z,11.13
2022-10-02T07:20:21.491Z,10.25
2022-10-02T07:23:09.921Z,10.27
2022-10-02T07:25:47.657Z,10.23
2022-10-02T07:28:38.359Z,11.73
2022-10-02T07:31:37.237Z,11.70
2022-10-02T07:34:15.708Z,12.15
2022-10-02T07:37:25.686Z,12.32
2022-10-02T07:40:10.222Z,12.00
2022-10-02T07:42:52.172Z,12.18
2022-10-02T07:45:18.867Z,11.98
2022-10-02T07:48:03.482Z,11.90
2022-10-02T07:50:51.087Z,13.07
2022-10-02T07:53:49.249Z,11.80
2022-10-02T07:56:20.784Z,12.40
2022-10-02T07:58:52.063Z,12.50
2022-10-02T08:01:26.949Z,12.18
2022-10-02T08:04:20.073Z,13.03
2022-10-02T08:06:48.079Z,12.50
2022-10-02T08:09:21.328Z,13.10
2022-10-02T08:11:58.977Z,12.25
2022-10-02T08:14:40.588Z,11.02
2022-10-02T08:17:27.618Z,10.48
2022-10-02T08:19:59.506Z,10.35
2022-10-02T08:22:55.496Z,9.30
2022-10-02T08:25:42.736Z,8.75
2022-10-02T08:28:22.472Z,8.95
2022-10-02T08:30:49.329Z,8.93
2022-10-02T08:33:19.458Z,8.38
2022-10-02T08:36:24.326Z,7.68
2022-10-02T08:39:00.844Z,6.65
2022-10-02T08:41:54.222Z,6.82
2022-10-02T08:44:36.561Z,6.50
2022-10-02T08:47:03.375Z,5.53
2022-10-02T08:49:55.136Z,5.57
2022-10-02T08:53:00.275Z,5.47
2022-10-02T08:55:44.068Z,4.78
2022-10-02T08:58:31.622Z,4.30
2022-10-02T09:01:10.085Z,4.38
2022-10-02T09:04:10.645Z,3.80
2022-10-02T09:06:57.051Z,4.25
2022-10-02T09:09:53.922Z,3.40
2022-10-02T09:12:32.519Z,3.08
2022-10-02T09:15:23.868Z,2.95
2022-10-02T09:18:06.172Z,3.00
2022-10-02T09:20:53.841Z,3.20
2022-10-02T09:23:35.577Z,3.28
2022-10-02T09:26:17.158Z,2.63
2022-10-02T09:29:28.642Z,2.45
2022-10-02T09:32:46.614Z,2.22
2022-10-02T09:35:34.245Z,2.50
2022-10-02T09:38:29.636Z,2.05
2022-10-02T09:41:41.201Z,1.80
2022-10-02T09:44:46.148Z,1.95
2022-10-02T09:47:49.970Z,1.77
2022-10-02T09:50:25.970Z,2.13
2022-10-02T09:53:11.544Z,1.75
2022-10-02T09:56:03.212Z,1.73
2022-10-02T09:59:05.003Z,1.75
2022-10-02T10:02:00.992Z,1.90
2022-10-02T10:05:04.653Z,1.75
2022-10-02T10:08:12.629Z,1.70
2022-10-02T10:11:12.388Z,1.70
2022-10-02T10:14:12.609Z,2.00
2022-10-02T10:17:19.338Z,2.05
2022-10-02T10:20:08.923Z,1.55
2022-10-02T10:23:12.528Z,1.35
2022-10-02T10:26:04.666Z,1.67
2022-10-02T10:28:55.679Z,1.40
2022-10-02T10:31:43.278Z,1.30
2022-10-02T10:34:47.493Z,1.30
2022-10-02T10:37:51.871Z,1.50
2022-10-02T10:40:57.457Z,1.50
2022-10-02T10:43:52.955Z,1.80
2022-10-02T10:46:36.579Z,1.40
2022-10-02T10:49:12.248Z,1.40
2022-10-02T10:54:40.651Z,0.90
2022-10-02T10:57:23.003Z,0.77
2022-10-02T11:00:16.043Z,1.02
2022-10-02T11:03:13.761Z,0.90
2022-10-02T11:06:14.711Z,0.60
2022-10-02T11:09:06.365Z,0.82
2022-10-02T11:11:40.844Z,0.90
2022-10-02T11:14:36.963Z,1.50
2022-10-02T11:17:22.316Z,1.30
2022-10-02T11:20:27.368Z,0.90
2022-10-02T11:23:00.121Z,1.00
2022-10-02T11:25:53.873Z,1.05
2022-10-02T11:28:45.320Z,1.02
2022-10-02T11:31:53.740Z,1.10
2022-10-02T11:34:44.780Z,1.13
2022-10-02T11:37:31.171Z,1.05
2022-10-02T11:40:15.751Z,1.40
2022-10-02T11:43:16.844Z,0.93
2022-10-02T11:46:36.806Z,1.00
2022-10-02T11:49:37.673Z,0.98
2022-10-02T11:52:31.033Z,1.10
2022-10-02T11:54:58.241Z,1.20
2022-10-02T11:57:35.553Z,1.02
2022-10-02T12:00:16.162Z,1.10
2022-10-02T12:03:24.349Z,1.00
2022-10-02T12:05:53.598Z,0.90
2022-10-02T12:08:42.032Z,0.80
2022-10-02T12:11:46.500Z,1.60
2022-10-02T12:14:17.753Z,1.60
2022-10-02T12:17:06.393Z,1.00
2022-10-02T12:19:36.677Z,0.95
2022-10-02T12:22:35.430Z,0.85
2022-10-02T12:25:33.278Z,1.00
2022-10-02T12:28:24.193Z,0.88
2022-10-02T12:31:33.047Z,0.75
2022-10-02T12:34:38.382Z,0.80
2022-10-02T12:37:29.866Z,0.90
2022-10-02T12:40:17.991Z,0.77
2022-10-02T12:43:11.666Z,1.08
2022-10-02T12:46:01.909Z,1.00
2022-10-02T12:49:16.165Z,0.68
2022-10-02T12:52:15.858Z,0.80
2022-10-02T12:55:01.590Z,0.80
2022-10-02T12:58:06.048Z,0.90
2022-10-02T13:01:00.756Z,0.70
2022-10-02T13:04:00.883Z,0.77
2022-10-02T13:07:26.447Z,0.80
2022-10-02T13:10:31.047Z,0.60
2022-10-02T13:13:32.014Z,1.40
2022-10-02T13:16:12.910Z,0.80
2022-10-02T13:18:50.510Z,0.73
2022-10-02T13:21:46.902Z,0.77
2022-10-02T13:24:40.340Z,0.60
2022-10-02T13:27:31.702Z,0.70
2022-10-02T13:30:13.987Z,0.60
2022-10-02T13:32:56.015Z,0.70
2022-10-02T13:36:01.999Z,0.70
2022-10-02T13:39:55.883Z,2.28
2022-10-02T13:43:37.822Z,0.57
2022-10-02T13:46:33.874Z,0.60
2022-10-02T13:49:00.617Z,0.70
2022-10-02T13:51:54.146Z,0.70
2022-10-02T13:54:48.226Z,0.60
2022-10-02T13:57:40.903Z,0.70
2022-10-02T14:00:51.044Z,0.50
2022-10-02T14:03:32.856Z,0.50
2022-10-02T14:06:29.244Z,0.70
2022-10-02T14:09:31.960Z,0.60
2022-10-02T14:12:08.953Z,0.60
2022-10-02T14:15:10.297Z,0.63
2022-10-02T14:17:55.761Z,0.65
2022-10-02T14:20:44.233Z,1.03
2022-10-02T14:23:13.773Z,0.98
2022-10-02T14:26:07.970Z,0.52
2022-10-02T14:29:08.725Z,0.70
2022-10-02T14:31:51.130Z,0.70
2022-10-02T14:34:36.571Z,0.68
2022-10-02T14:37:25.977Z,0.82
2022-10-02T14:39:55.568Z,0.73
2022-10-02T14:42:37.610Z,0.60
2022-10-02T14:45:22.383Z,0.70
2022-10-02T14:48:05.148Z,0.90
2022-10-02T14:50:40.611Z,0.73
2022-10-02T14:53:31.996Z,0.70
2022-10-02T14:56:27.822Z,0.80
2022-10-02T14:59:25.329Z,0.70
2022-10-02T15:02:10.038Z,0.70
2022-10-02T15:05:07.839Z,1.00
2022-10-02T15:07:38.721Z,0.75
2022-10-02T15:10:07.348Z,0.80
2022-10-02T15:12:37.078Z,0.90
2022-10-02T15:15:31.547Z,1.02
2022-10-02T15:18:10.215Z,0.98
2022-10-02T15:21:00.693Z,1.00
2022-10-02T15:23:33.289Z,0.93
2022-10-02T15:26:24.982Z,1.08
2022-10-02T15:28:57.709Z,0.82
2022-10-02T15:32:10.769Z,0.90
2022-10-02T15:34:59.473Z,1.38
2022-10-02T15:37:35.633Z,0.90
2022-10-02T15:40:08.853Z,0.88
2022-10-02T15:42:57.540Z,0.88
2022-10-02T15:45:52.826Z,0.80
2022-10-02T15:48:44.826Z,1.15
2022-10-02T15:51:38.544Z,0.98
2022-10-02T15:54:16.788Z,1.00
2022-10-02T15:57:16.905Z,1.23
2022-10-02T16:00:12.474Z,0.95
2022-10-02T16:03:19.115Z,1.27
2022-10-02T16:05:53.553Z,1.10
2022-10-02T16:08:41.332Z,0.90
2022-10-02T16:11:41.933Z,0.90
2022-10-02T16:14:27.495Z,1.13
2022-10-02T16:17:14.570Z,1.00
2022-10-02T16:19:56.124Z,0.95
2022-10-02T16:22:41.031Z,1.00
2022-10-02T16:25:22.783Z,1.10
2022-10-02T16:28:11.022Z,0.90
2022-10-02T16:31:12.997Z,1.00
2022-10-02T16:33:51.091Z,1.10
2022-10-02T16:36:30.005Z,1.20
2022-10-02T16:39:26.298Z,1.45
2022-10-02T16:42:21.099Z,1.40
2022-10-02T16:45:23.865Z,1.40
2022-10-02T16:48:07.745Z,1.30
2022-10-02T16:51:08.642Z,1.50
2022-10-02T16:53:47.314Z,1.50
2022-10-02T16:56:20.939Z,1.58
2022-10-02T16:59:02.542Z,2.15
2022-10-02T17:01:35.655Z,2.85
2022-10-02T17:04:28.692Z,2.70
2022-10-02T17:07:30.894Z,1.83
2022-10-02T17:10:18.191Z,1.55
2022-10-02T17:12:48.705Z,1.17
2022-10-02T17:15:25.476Z,0.98
2022-10-02T17:18:07.435Z,0.90
2022-10-02T17:20:42.750Z,0.98
2022-10-02T17:23:09.444Z,1.10
2022-10-02T17:26:22.510Z,1.23
2022-10-02T17:28:59.088Z,1.27
2022-10-02T17:31:51.978Z,1.08
2022-10-02T17:34:30.004Z,1.88
2022-10-02T17:37:09.334Z,1.10
2022-10-02T17:39:46.396Z,1.30
2022-10-02T17:42:30.339Z,1.33
2022-10-02T17:45:06.525Z,2.00
2022-10-02T17:47:48.638Z,1.13
2022-10-02T17:50:23.982Z,1.17
2022-10-02T17:53:37.996Z,1.10
2022-10-02T17:56:38.366Z,1.33
2022-10-02T17:59:30.570Z,1.20
2022-10-02T18:02:29.141Z,1.40
2022-10-02T18:05:14.619Z,1.20
2022-10-02T18:08:09.374Z,1.43
2022-10-02T18:11:19.400Z,1.40
2022-10-02T18:14:07.132Z,1.30
2022-10-02T18:17:06.401Z,1.20
2022-10-02T18:19:42.385Z,1.42
2022-10-02T18:22:38.086Z,1.20
2022-10-02T18:25:12.434Z,1.20
2022-10-02T18:28:16.717Z,1.30
2022-10-02T18:30:49.307Z,1.15
2022-10-02T18:34:07.301Z,1.38
2022-10-02T18:36:52.024Z,1.30
2022-10-02T18:39:33.159Z,1.20
2022-10-02T18:42:19.738Z,1.30
2022-10-02T18:44:59.515Z,1.42
2022-10-02T18:47:51.250Z,1.45
2022-10-02T18:50:45.572Z,1.63
2022-10-02T18:53:34.726Z,1.83
2022-10-02T18:56:08.634Z,1.90
2022-10-02T18:58:50.487Z,1.67
2022-10-02T19:01:20.106Z,1.40
2022-10-02T19:04:04.772Z,1.45
2022-10-02T19:06:34.887Z,1.60
2022-10-02T19:09:07.753Z,1.60
2022-10-02T19:11:43.979Z,1.65
2022-10-02T19:14:41.519Z,1.63
2022-10-02T19:17:30.813Z,1.20
2022-10-02T19:19:58.706Z,1.33
2022-10-02T19:22:36.255Z,1.60
2022-10-02T19:25:16.195Z,1.33
2022-10-02T19:27:49.446Z,1.38
2022-10-02T19:30:33.282Z,1.40
2022-10-02T19:33:10.952Z,1.50
2022-10-02T19:35:44.049Z,1.40
2022-10-02T19:38:21.353Z,1.55
2022-10-02T19:40:56.490Z,1.48
2022-10-02T19:43:31.032Z,1.73
2022-10-02T19:46:04.337Z,3.10
2022-10-02T19:48:32.367Z,1.40
2022-10-02T19:51:02.191Z,1.70
2022-10-02T19:53:55.898Z,1.50
2022-10-02T19:56:35.124Z,1.63
2022-10-02T19:59:10.997Z,1.70
2022-10-02T20:04:25.806Z,1.45
2022-10-02T20:06:57.075Z,1.23
2022-10-02T20:09:39.271Z,1.38
2022-10-02T20:12:11.083Z,1.30
2022-10-02T20:14:57.187Z,1.60
2022-10-02T20:17:24.195Z,1.40
2022-10-02T20:19:57.860Z,1.88
2022-10-02T20:22:52.472Z,1.10
2022-10-02T20:25:29.317Z,1.20
2022-10-02T20:28:10.341Z,1.23
2022-10-02T20:31:03.613Z,1.20
2022-10-02T20:33:40.315Z,1.20
2022-10-02T20:36:14.445Z,1.30
2022-10-02T20:38:50.637Z,1.42
2022-10-02T20:41:29.101Z,1.27
2022-10-02T20:44:02.374Z,1.48
2022-10-02T20:47:06.163Z,2.08
2022-10-02T20:49:52.784Z,2.15
2022-10-02T20:52:40.491Z,1.77
2022-10-02T20:55:18.004Z,1.42
2022-10-02T20:58:00.823Z,1.40
2022-10-02T21:00:47.496Z,1.38
2022-10-02T21:03:29.795Z,1.05
2022-10-02T21:06:42.151Z,1.45
2022-10-02T21:09:30.744Z,1.30
2022-10-02T21:12:12.796Z,1.48
2022-10-02T21:14:39.587Z,1.50
2022-10-02T21:17:24.397Z,1.50
2022-10-02T21:20:09.753Z,1.83
2022-10-02T21:22:54.957Z,1.40
2022-10-02T21:25:40.585Z,1.52
2022-10-02T21:28:19.651Z,1.30
2022-10-02T21:31:12.968Z,1.50
2022-10-02T21:33:42.090Z,1.30
2022-10-02T21:36:20.272Z,1.15
2022-10-02T21:39:39.010Z,1.35
2022-10-02T21:42:08.662Z,1.90
2022-10-02T21:45:03.499Z,1.60
2022-10-02T21:47:58.081Z,1.58
2022-10-02T21:51:05.015Z,1.58
2022-10-02T21:53:31.784Z,1.50
2022-10-02T21:56:13.862Z,1.40
2022-10-02T21:59:25.475Z,1.73
2022-10-02T22:02:29.609Z,1.55
2022-10-02T22:05:23.193Z,1.90
2022-10-02T22:08:02.382Z,1.67
2022-10-02T22:10:44.085Z,1.58
2022-10-02T22:13:33.055Z,1.40
2022-10-02T22:16:11.837Z,1.70
2022-10-02T22:19:20.805Z,2.03
2022-10-02T22:21:59.270Z,1.48
2022-10-02T22:24:53.675Z,1.48
2022-10-02T22:28:04.983Z,1.63
2022-10-02T22:30:42.891Z,1.55
2022-10-02T22:33:20.113Z,1.40
2022-10-02T22:36:00.486Z,1.60
2022-10-02T22:38:42.131Z,1.45
2022-10-02T22:41:43.574Z,1.40
2022-10-02T22:44:39.240Z,1.70
2022-10-02T22:47:32.861Z,1.60
2022-10-02T22:50:44.707Z,1.50
2022-10-02T22:53:20.211Z,1.42
2022-10-02T22:55:57.635Z,1.60
2022-10-02T22:58:41.909Z,1.50
2022-10-02T23:01:16.799Z,1.50
2022-10-02T23:03:46.582Z,1.60
2022-10-02T23:06:31.638Z,1.75
2022-10-02T23:09:01.893Z,2.00
2022-10-02T23:11:44.191Z,1.88
2022-10-02T23:14:23.927Z,1.65
2022-10-02T23:17:06.262Z,2.25
2022-10-02T23:19:43.977Z,2.17
2022-10-02T23:22:43.841Z,2.20
2022-10-02T23:25:14.298Z,2.10
2022-10-02T23:27:46.958Z,2.17
2022-10-02T23:30:19.805Z,1.98
2022-10-02T23:33:09.808Z,2.22
2022-10-02T23:36:04.306Z,2.33
2022-10-02T23:38:49.538Z,2.42
2022-10-02T23:41:46.563Z,2.63
2022-10-02T23:44:17.278Z,2.30
2022-10-02T23:46:50.264Z,2.20
2022-10-02T23:49:19.511Z,2.00
2022-10-02T23:51:46.183Z,2.30
2022-10-02T23:54:24.152Z,2.42
2022-10-02T23:56:58.612Z,2.03
2022-10-02T23:59:47.017Z,2.30
